Time;durP1;ratioP1;P1;durP2;ratioP2;P2;SDS_P1;SDS_P2;PMS_P1;PMS_P2;Temp;Humidity;BMP_temperature;BMP_pressure;BME280_temperature;BME280_humidity;BME280_pressure;Samples;Min_cycle;Max_cycle;Signal;HPM_P1;HPM_P2
2021/12/10 00:02:20;;;;;;;;;;;2.10;99.90;;;;;;5076560;28;19931;-91
2021/12/10 00:04:47;;;;;;;;;;;2.10;99.90;;;;;;5076089;28;19915;-89
2021/12/10 00:07:16;;;;;;;;;;;2.10;99.90;;;;;;5078895;28;19928;-90
2021/12/10 00:09:45;;;;;;;;;;;2.10;99.90;;;;;;5077898;28;19931;-90
2021/12/10 00:12:16;;;;;;;;;;;2.10;99.90;;;;;;5076836;28;19951;-90
2021/12/10 00:14:43;;;;;;;;;;;2.00;99.90;;;;;;5076084;28;19925;-88
2021/12/10 00:17:12;;;;;;;;;;;2.00;99.90;;;;;;5093011;28;19912;-89
2021/12/10 00:19:44;;;;;;;;;;;2.10;99.90;;;;;;5076808;28;19932;-89
2021/12/10 00:22:13;;;;;;;;;;;2.00;99.90;;;;;;5071741;28;19908;-88
2021/12/10 00:24:41;;;;;;;;;;;2.00;99.90;;;;;;5077347;28;19912;-90
2021/12/10 00:27:09;;;;;;;;;;;2.00;99.90;;;;;;5083355;28;20983;-89
2021/12/10 00:29:40;;;;;;;;;;;2.00;99.90;;;;;;5072536;28;19976;-89
2021/12/10 00:32:17;;;;;;;;;;;2.00;99.90;;;;;;5074993;28;19932;-90
2021/12/10 00:34:45;;;;;;;;;;;2.10;99.90;;;;;;5088957;28;19936;-90
2021/12/10 00:37:15;;;;;;;;;;;2.00;99.90;;;;;;5078359;28;19912;-91
2021/12/10 00:39:44;;;;;;;;;;;2.00;99.90;;;;;;5074257;28;19938;-89
2021/12/10 00:42:14;;;;;;;;;;;2.00;99.90;;;;;;5075819;28;19933;-90
2021/12/10 00:44:43;;;;;;;;;;;2.00;99.90;;;;;;5076499;28;19928;-90
2021/12/10 00:47:10;;;;;;;;;;;2.00;99.90;;;;;;5086551;28;19928;-88
2021/12/10 00:49:38;;;;;;;;;;;2.00;99.90;;;;;;5078712;28;19912;-88
2021/12/10 00:52:06;;;;;;;;;;;2.00;99.90;;;;;;5090540;28;19939;-90
2021/12/10 00:54:33;;;;;;;;;;;2.00;99.90;;;;;;5073372;28;19951;-89
2021/12/10 00:57:01;;;;;;;;;;;2.00;99.90;;;;;;5081513;28;19936;-89
2021/12/10 00:59:29;;;;;;;;;;;2.00;99.90;;;;;;5073344;28;19939;-89
2021/12/10 01:01:58;;;;;;;;;;;2.00;99.90;;;;;;5077219;28;19971;-90
2021/12/10 01:04:27;;;;;;;;;;;2.00;99.90;;;;;;5088372;28;19967;-88
2021/12/10 01:06:55;;;;;;;;;;;2.00;99.90;;;;;;5076607;28;19913;-91
2021/12/10 01:09:23;;;;;;;;;;;2.00;99.90;;;;;;5079531;28;19920;-90
2021/12/10 01:11:52;;;;;;;;;;;2.00;99.90;;;;;;5073391;28;19981;-89
2021/12/10 01:14:24;;;;;;;;;;;2.00;99.90;;;;;;5072350;28;19912;-90
2021/12/10 01:25:33;;;;;;;;;;;1.90;99.90;;;;;;5075923;28;19944;-90
2021/12/10 01:28:00;;;;;;;;;;;2.00;99.90;;;;;;5076628;28;19912;-90
2021/12/10 01:30:30;;;;;;;;;;;1.90;99.90;;;;;;5075050;28;19915;-90
2021/12/10 01:32:59;;;;;;;;;;;2.00;99.90;;;;;;5089512;28;19912;-90
2021/12/10 01:35:29;;;;;;;;;;;1.90;99.90;;;;;;5077645;28;19913;-90
2021/12/10 01:37:57;;;;;;;;;;;1.90;99.90;;;;;;5089969;28;19924;-90
2021/12/10 01:40:26;;;;;;;;;;;1.90;99.90;;;;;;5074084;28;20003;-89
2021/12/10 01:42:59;;;;;;;;;;;1.90;99.90;;;;;;5074818;28;19913;-90
2021/12/10 01:45:31;;;;;;;;;;;1.90;99.90;;;;;;5071988;28;19979;-88
2021/12/10 01:47:59;;;;;;;;;;;1.90;99.90;;;;;;5081592;28;19912;-90
2021/12/10 01:50:28;;;;;;;;;;;1.90;99.90;;;;;;5092688;28;20051;-90
2021/12/10 01:52:57;;;;;;;;;;;1.90;99.90;;;;;;5091639;28;19923;-90
2021/12/10 01:55:26;;;;;;;;;;;1.90;99.90;;;;;;5075033;28;19912;-89
2021/12/10 01:57:54;;;;;;;;;;;1.90;99.90;;;;;;5065822;28;19931;-89
2021/12/10 02:00:22;;;;;;;;;;;1.90;99.90;;;;;;5073420;28;19995;-90
2021/12/10 02:02:50;;;;;;;;;;;1.90;99.90;;;;;;5088240;28;19999;-87
2021/12/10 02:05:21;;;;;;;;;;;1.90;99.90;;;;;;5071303;28;19912;-91
2021/12/10 02:07:50;;;;;;;;;;;1.90;99.90;;;;;;5075374;28;20026;-90
2021/12/10 02:10:18;;;;;;;;;;;1.90;99.90;;;;;;5088700;28;19920;-89
2021/12/10 02:12:46;;;;;;;;;;;1.90;99.90;;;;;;5073826;28;19912;-90
2021/12/10 02:15:14;;;;;;;;;;;1.90;99.90;;;;;;5071706;28;19980;-89
2021/12/10 02:17:43;;;;;;;;;;;1.90;99.90;;;;;;5076841;28;19943;-88
2021/12/10 02:20:12;;;;;;;;;;;1.90;99.90;;;;;;5077880;28;19986;-88
2021/12/10 02:22:41;;;;;;;;;;;1.90;99.90;;;;;;5072067;28;20203;-89
2021/12/10 02:25:09;;;;;;;;;;;1.90;99.90;;;;;;5090354;28;20047;-89
2021/12/10 02:27:36;;;;;;;;;;;1.90;99.90;;;;;;5075140;28;19954;-88
2021/12/10 02:30:05;;;;;;;;;;;1.90;99.90;;;;;;5073912;28;19947;-90
2021/12/10 02:32:32;;;;;;;;;;;1.90;99.90;;;;;;5093182;28;19934;-88
2021/12/10 02:34:59;;;;;;;;;;;1.90;99.90;;;;;;5071556;28;19940;-89
2021/12/10 02:37:26;;;;;;;;;;;1.90;99.90;;;;;;5076291;28;19920;-88
2021/12/10 02:39:55;;;;;;;;;;;1.90;99.90;;;;;;5076196;28;19944;-89
2021/12/10 02:42:22;;;;;;;;;;;1.90;99.90;;;;;;5072329;28;19913;-88
2021/12/10 02:44:49;;;;;;;;;;;1.90;99.90;;;;;;5076889;28;19951;-90
2021/12/10 02:47:20;;;;;;;;;;;1.90;99.90;;;;;;5082817;28;19921;-88
2021/12/10 02:49:47;;;;;;;;;;;1.90;99.90;;;;;;5081182;28;19988;-89
2021/12/10 02:52:15;;;;;;;;;;;1.90;99.90;;;;;;5071972;28;19912;-88
2021/12/10 02:54:44;;;;;;;;;;;1.90;99.90;;;;;;5078765;28;19931;-89
2021/12/10 02:57:16;;;;;;;;;;;1.90;99.90;;;;;;5079825;28;19944;-88
2021/12/10 02:59:43;;;;;;;;;;;1.90;99.90;;;;;;5076438;28;19944;-88
2021/12/10 03:02:12;;;;;;;;;;;1.90;99.90;;;;;;5088286;28;19920;-89
2021/12/10 03:04:39;;;;;;;;;;;1.90;99.90;;;;;;5087335;28;19928;-90
2021/12/10 03:07:12;;;;;;;;;;;1.90;99.90;;;;;;5094729;28;19912;-88
2021/12/10 03:09:39;;;;;;;;;;;1.90;99.90;;;;;;5090395;28;19912;-89
2021/12/10 03:12:06;;;;;;;;;;;1.90;99.90;;;;;;5077442;28;19921;-89
2021/12/10 03:14:37;;;;;;;;;;;1.90;99.90;;;;;;5078131;28;19912;-88
2021/12/10 03:17:06;;;;;;;;;;;1.90;99.90;;;;;;5080050;28;19992;-90
2021/12/10 03:19:34;;;;;;;;;;;1.90;99.90;;;;;;5094494;28;19913;-89
2021/12/10 03:22:01;;;;;;;;;;;1.90;99.90;;;;;;5078319;28;19993;-88
2021/12/10 03:24:29;;;;;;;;;;;1.90;99.90;;;;;;5080183;28;19909;-89
2021/12/10 03:26:57;;;;;;;;;;;1.90;99.90;;;;;;5093259;28;19920;-89
2021/12/10 03:29:25;;;;;;;;;;;1.90;99.90;;;;;;5076760;28;19915;-87
2021/12/10 03:31:59;;;;;;;;;;;1.90;99.90;;;;;;5078435;28;19959;-89
2021/12/10 03:34:27;;;;;;;;;;;1.90;99.90;;;;;;5084412;27;19996;-89
2021/12/10 03:36:55;;;;;;;;;;;1.90;99.90;;;;;;5078350;28;19919;-89
2021/12/10 03:39:24;;;;;;;;;;;1.90;99.90;;;;;;5080666;28;19912;-90
2021/12/10 03:41:53;;;;;;;;;;;1.90;99.90;;;;;;5102180;28;19928;-89
2021/12/10 03:44:20;;;;;;;;;;;1.90;99.90;;;;;;5078158;28;19912;-88
2021/12/10 03:46:47;;;;;;;;;;;1.90;99.90;;;;;;5078863;28;19920;-89
2021/12/10 03:49:16;;;;;;;;;;;1.90;99.90;;;;;;5094896;28;19913;-89
2021/12/10 03:51:43;;;;;;;;;;;1.90;99.90;;;;;;5079052;28;19931;-90
2021/12/10 03:54:11;;;;;;;;;;;1.90;99.90;;;;;;5078653;28;19984;-90
2021/12/10 03:56:39;;;;;;;;;;;1.90;99.90;;;;;;5087676;28;19920;-88
2021/12/10 03:59:08;;;;;;;;;;;1.90;99.90;;;;;;5078376;28;19985;-90
2021/12/10 04:01:38;;;;;;;;;;;1.90;99.90;;;;;;5074374;28;19921;-89
2021/12/10 04:04:07;;;;;;;;;;;1.90;99.90;;;;;;5075664;28;19921;-89
2021/12/10 04:06:36;;;;;;;;;;;1.90;99.90;;;;;;5092663;28;19920;-91
2021/12/10 04:09:03;;;;;;;;;;;1.90;99.90;;;;;;5073617;28;19912;-87
2021/12/10 04:11:31;;;;;;;;;;;1.90;99.90;;;;;;5074572;28;19913;-88
2021/12/10 04:13:58;;;;;;;;;;;1.90;99.90;;;;;;5079485;28;19913;-90
2021/12/10 04:16:26;;;;;;;;;;;1.90;99.90;;;;;;5075458;28;19908;-91
2021/12/10 04:18:54;;;;;;;;;;;1.90;99.90;;;;;;5070992;28;19955;-90
2021/12/10 04:21:22;;;;;;;;;;;1.90;99.90;;;;;;5095705;28;19913;-91
2021/12/10 04:23:51;;;;;;;;;;;1.90;99.90;;;;;;5091597;28;19919;-90
2021/12/10 04:26:19;;;;;;;;;;;1.90;99.90;;;;;;5078172;28;19935;-91
2021/12/10 04:28:46;;;;;;;;;;;1.90;99.90;;;;;;5093445;28;19909;-89
2021/12/10 04:31:14;;;;;;;;;;;1.80;99.90;;;;;;5076524;28;19936;-90
2021/12/10 04:33:41;;;;;;;;;;;1.80;99.90;;;;;;5078720;28;19935;-89
2021/12/10 04:36:12;;;;;;;;;;;1.80;99.90;;;;;;5076649;28;19931;-89
2021/12/10 04:38:39;;;;;;;;;;;1.90;99.90;;;;;;5078344;28;19919;-88
2021/12/10 04:41:09;;;;;;;;;;;1.80;99.90;;;;;;5078933;28;19916;-88
2021/12/10 04:43:37;;;;;;;;;;;1.80;99.90;;;;;;5078260;28;19992;-90
2021/12/10 04:46:07;;;;;;;;;;;1.80;99.90;;;;;;5073951;28;19912;-89
2021/12/10 04:48:44;;;;;;;;;;;1.80;99.90;;;;;;5079847;28;20000;-90
2021/12/10 04:51:11;;;;;;;;;;;1.90;99.90;;;;;;5082162;28;19908;-88
2021/12/10 04:53:38;;;;;;;;;;;1.80;99.90;;;;;;5077583;28;19931;-91
2021/12/10 04:56:06;;;;;;;;;;;1.90;99.90;;;;;;5079138;28;19912;-90
2021/12/10 04:58:35;;;;;;;;;;;1.80;99.90;;;;;;5076016;28;19962;-87
2021/12/10 05:01:03;;;;;;;;;;;1.80;99.90;;;;;;5075171;28;19955;-90
2021/12/10 05:03:31;;;;;;;;;;;1.80;99.90;;;;;;5094348;28;19913;-89
2021/12/10 05:06:02;;;;;;;;;;;1.90;99.90;;;;;;5077496;28;19912;-89
2021/12/10 05:08:30;;;;;;;;;;;1.80;99.90;;;;;;5077768;28;19919;-89
2021/12/10 05:10:57;;;;;;;;;;;1.80;99.90;;;;;;5077641;28;19963;-88
2021/12/10 05:13:26;;;;;;;;;;;1.80;99.90;;;;;;5078006;28;20017;-89
2021/12/10 05:15:58;;;;;;;;;;;1.80;99.90;;;;;;5073200;28;19945;-89
2021/12/10 05:18:26;;;;;;;;;;;1.80;99.90;;;;;;5069819;28;19908;-89
2021/12/10 05:20:55;;;;;;;;;;;1.80;99.90;;;;;;5077449;28;19936;-89
2021/12/10 05:23:26;;;;;;;;;;;1.80;99.90;;;;;;5073547;28;19921;-89
2021/12/10 05:25:53;;;;;;;;;;;1.70;99.90;;;;;;5070977;28;19928;-89
2021/12/10 05:28:21;;;;;;;;;;;1.80;99.90;;;;;;5077055;28;19912;-89
2021/12/10 05:30:54;;;;;;;;;;;1.70;99.90;;;;;;5077978;28;19912;-91
2021/12/10 05:33:24;;;;;;;;;;;1.70;99.90;;;;;;5086881;28;19929;-91
2021/12/10 05:35:51;;;;;;;;;;;1.70;99.90;;;;;;5076309;28;19912;-90
2021/12/10 05:38:19;;;;;;;;;;;1.70;99.90;;;;;;5090699;28;19909;-89
2021/12/10 05:40:47;;;;;;;;;;;1.80;99.90;;;;;;5072417;28;19920;-89
2021/12/10 05:43:15;;;;;;;;;;;1.70;99.90;;;;;;5091872;28;19939;-87
2021/12/10 05:45:42;;;;;;;;;;;1.70;99.90;;;;;;5093041;28;19908;-89
2021/12/10 05:48:10;;;;;;;;;;;1.70;99.90;;;;;;5077324;28;19908;-89
2021/12/10 05:50:39;;;;;;;;;;;1.70;99.90;;;;;;5088411;28;19924;-88
2021/12/10 05:53:06;;;;;;;;;;;1.70;99.90;;;;;;5080067;28;21762;-90
2021/12/10 05:55:34;;;;;;;;;;;1.70;99.90;;;;;;5075976;28;19920;-90
2021/12/10 05:58:02;;;;;;;;;;;1.70;99.90;;;;;;5076280;28;19947;-90
2021/12/10 06:00:32;;;;;;;;;;;1.70;99.90;;;;;;5071886;28;19909;-91
2021/12/10 06:03:00;;;;;;;;;;;1.70;99.90;;;;;;5078629;28;19912;-91
2021/12/10 06:05:31;;;;;;;;;;;1.70;99.90;;;;;;5087737;28;19920;-90
2021/12/10 06:07:59;;;;;;;;;;;1.60;99.90;;;;;;5090370;28;19924;-85
2021/12/10 06:10:26;;;;;;;;;;;1.70;99.90;;;;;;5076495;28;19932;-85
2021/12/10 06:12:54;;;;;;;;;;;1.70;99.90;;;;;;5079482;28;19950;-88
2021/12/10 06:15:23;;;;;;;;;;;1.60;99.90;;;;;;5072313;28;19939;-88
2021/12/10 06:17:51;;;;;;;;;;;1.50;99.90;;;;;;5076217;28;19912;-86
2021/12/10 06:20:20;;;;;;;;;;;1.50;99.90;;;;;;5076652;28;19940;-88
2021/12/10 06:22:47;;;;;;;;;;;1.50;99.90;;;;;;5081367;28;19920;-86
2021/12/10 06:25:16;;;;;;;;;;;1.50;99.90;;;;;;5084056;28;19943;-86
2021/12/10 06:27:45;;;;;;;;;;;1.50;99.90;;;;;;5083855;28;19920;-86
2021/12/10 06:30:14;;;;;;;;;;;1.50;99.90;;;;;;5080057;28;19912;-86
2021/12/10 06:32:42;;;;;;;;;;;1.50;99.90;;;;;;5075914;28;19919;-86
2021/12/10 06:35:09;;;;;;;;;;;1.50;99.90;;;;;;5082997;28;19908;-86
2021/12/10 06:37:37;;;;;;;;;;;1.50;99.90;;;;;;5071266;28;19933;-84
2021/12/10 06:40:04;;;;;;;;;;;1.50;99.90;;;;;;5082998;28;19920;-84
2021/12/10 06:42:33;;;;;;;;;;;1.50;99.90;;;;;;5105177;28;19911;-85
2021/12/10 06:45:01;;;;;;;;;;;1.40;99.90;;;;;;5081717;28;19947;-87
2021/12/10 06:47:28;;;;;;;;;;;1.40;99.90;;;;;;5092045;28;19913;-85
2021/12/10 06:49:55;;;;;;;;;;;1.40;99.90;;;;;;5088732;28;20237;-88
2021/12/10 06:52:23;;;;;;;;;;;1.40;99.90;;;;;;5081253;28;19912;-87
2021/12/10 06:54:50;;;;;;;;;;;1.50;99.90;;;;;;5082862;28;19920;-85
2021/12/10 06:57:17;;;;;;;;;;;1.50;99.90;;;;;;5065810;28;19966;-85
2021/12/10 06:59:46;;;;;;;;;;;1.50;99.90;;;;;;5079684;28;19923;-86
2021/12/10 07:02:13;;;;;;;;;;;1.40;99.90;;;;;;5091946;28;19912;-84
2021/12/10 07:04:41;;;;;;;;;;;1.30;99.90;;;;;;5083564;28;19934;-85
2021/12/10 07:07:09;;;;;;;;;;;1.30;99.90;;;;;;5073180;28;19932;-85
2021/12/10 07:09:36;;;;;;;;;;;1.30;99.90;;;;;;5078302;22;20014;-81
2021/12/10 07:12:03;;;;;;;;;;;1.30;99.90;;;;;;5063681;28;19932;-81
2021/12/10 07:14:31;;;;;;;;;;;1.30;99.90;;;;;;5074144;28;19933;-81
2021/12/10 07:16:59;;;;;;;;;;;1.30;99.90;;;;;;5050199;28;19931;-81
2021/12/10 07:19:28;;;;;;;;;;;1.30;99.90;;;;;;5061243;28;19932;-81
2021/12/10 07:21:55;;;;;;;;;;;1.30;99.90;;;;;;5042170;28;19932;-80
2021/12/10 07:24:22;;;;;;;;;;;1.30;99.90;;;;;;5062827;28;20479;-81
2021/12/10 07:26:49;;;;;;;;;;;1.30;99.90;;;;;;5065465;28;20191;-80
2021/12/10 07:29:16;;;;;;;;;;;1.30;99.90;;;;;;5051251;28;19925;-81
2021/12/10 07:31:44;;;;;;;;;;;1.30;99.90;;;;;;5046567;28;20306;-80
2021/12/10 07:34:12;;;;;;;;;;;1.30;99.90;;;;;;5053148;28;19924;-81
2021/12/10 07:39:10;;;;;;;;;;;1.30;99.90;;;;;;5038929;28;19935;-79
2021/12/10 07:41:40;;;;;;;;;;;1.30;99.90;;;;;;5067427;28;19924;-79
2021/12/10 07:44:07;;;;;;;;;;;1.30;99.90;;;;;;5144513;22;20920;-83
2021/12/10 07:46:35;;;;;;;;;;;1.30;99.90;;;;;;5054114;28;19924;-82
2021/12/10 07:51:31;;;;;;;;;;;1.30;99.90;;;;;;5045434;28;19929;-85
2021/12/10 07:53:59;;;;;;;;;;;1.20;99.90;;;;;;5023677;28;20383;-81
2021/12/10 07:56:28;;;;;;;;;;;1.20;99.90;;;;;;5026455;28;19976;-82
2021/12/10 07:58:55;;;;;;;;;;;1.20;99.90;;;;;;5036851;28;19931;-83
2021/12/10 08:01:24;;;;;;;;;;;1.30;99.90;;;;;;5031064;28;19970;-82
2021/12/10 08:03:53;;;;;;;;;;;1.20;99.90;;;;;;5033758;28;19960;-82
2021/12/10 08:06:20;;;;;;;;;;;1.20;99.90;;;;;;5034807;28;19925;-84
2021/12/10 08:08:50;;;;;;;;;;;1.20;99.90;;;;;;5050314;28;19925;-87
2021/12/10 08:11:17;;;;;;;;;;;1.20;99.90;;;;;;5027375;28;19925;-83
2021/12/10 08:13:44;;;;;;;;;;;1.20;99.90;;;;;;5046459;28;19929;-82
2021/12/10 08:16:11;;;;;;;;;;;1.30;99.90;;;;;;5046184;28;19925;-82
2021/12/10 08:18:39;;;;;;;;;;;1.30;99.90;;;;;;5049593;28;19939;-81
2021/12/10 08:21:06;;;;;;;;;;;1.30;99.90;;;;;;5044763;28;19928;-81
2021/12/10 08:23:33;;;;;;;;;;;1.30;99.90;;;;;;5043262;28;19925;-81
2021/12/10 08:26:02;;;;;;;;;;;1.30;99.90;;;;;;5047463;28;19929;-82
2021/12/10 08:28:29;;;;;;;;;;;1.30;99.90;;;;;;5044032;28;19940;-85
2021/12/10 08:30:56;;;;;;;;;;;1.20;99.90;;;;;;5042042;28;19924;-88
2021/12/10 08:33:24;;;;;;;;;;;1.20;99.90;;;;;;5050693;28;19933;-81
2021/12/10 08:35:53;;;;;;;;;;;1.20;99.90;;;;;;5048005;28;20426;-81
2021/12/10 08:38:20;;;;;;;;;;;1.20;99.90;;;;;;5045594;28;20020;-82
2021/12/10 08:40:48;;;;;;;;;;;1.20;99.90;;;;;;5043622;28;19925;-82
2021/12/10 08:43:17;;;;;;;;;;;1.20;99.90;;;;;;5030585;28;19940;-83
2021/12/10 08:45:45;;;;;;;;;;;1.20;99.90;;;;;;5033887;28;20342;-81
2021/12/10 08:48:12;;;;;;;;;;;1.30;99.90;;;;;;5031006;28;20047;-82
2021/12/10 08:50:39;;;;;;;;;;;1.30;99.90;;;;;;5031264;28;19924;-82
2021/12/10 08:53:07;;;;;;;;;;;1.20;99.90;;;;;;5045871;28;19933;-84
2021/12/10 08:55:35;;;;;;;;;;;1.20;99.90;;;;;;5050474;28;20314;-82
2021/12/10 08:58:03;;;;;;;;;;;1.20;99.90;;;;;;5047642;28;20306;-82
2021/12/10 09:00:32;;;;;;;;;;;1.20;99.90;;;;;;5027406;28;19979;-89
2021/12/10 09:02:59;;;;;;;;;;;1.30;99.90;;;;;;5047916;28;19932;-82
2021/12/10 09:05:27;;;;;;;;;;;1.30;99.90;;;;;;5049378;28;20325;-81
2021/12/10 09:07:54;;;;;;;;;;;1.30;99.90;;;;;;5032110;28;19976;-81
2021/12/10 09:10:22;;;;;;;;;;;1.30;99.90;;;;;;5044012;28;19972;-82
2021/12/10 09:12:50;;;;;;;;;;;1.30;99.90;;;;;;5050167;28;19937;-81
2021/12/10 09:15:20;;;;;;;;;;;1.30;99.90;;;;;;5049939;28;20377;-81
2021/12/10 09:17:49;;;;;;;;;;;1.30;99.90;;;;;;5042007;28;19940;-81
2021/12/10 09:20:18;;;;;;;;;;;1.30;99.90;;;;;;5031515;28;20016;-81
2021/12/10 09:22:46;;;;;;;;;;;1.30;99.90;;;;;;5042441;28;19994;-83
2021/12/10 09:25:13;;;;;;;;;;;1.30;99.90;;;;;;5048460;28;20023;-86
2021/12/10 09:27:40;;;;;;;;;;;1.30;99.90;;;;;;5031378;28;19925;-82
2021/12/10 09:30:11;;;;;;;;;;;1.30;99.90;;;;;;5042427;28;20463;-82
2021/12/10 09:32:38;;;;;;;;;;;1.30;99.90;;;;;;5028591;28;19936;-82
2021/12/10 09:35:08;;;;;;;;;;;1.30;99.90;;;;;;5051418;28;20313;-81
2021/12/10 09:37:36;;;;;;;;;;;1.30;99.90;;;;;;5036655;28;19928;-81
2021/12/10 09:40:04;;;;;;;;;;;1.30;99.90;;;;;;5039710;28;19968;-81
2021/12/10 09:42:32;;;;;;;;;;;1.30;99.90;;;;;;5028818;28;20509;-86
2021/12/10 09:44:59;;;;;;;;;;;1.30;99.90;;;;;;5027935;28;19932;-82
2021/12/10 09:47:26;;;;;;;;;;;1.30;99.90;;;;;;5031643;28;19975;-81
2021/12/10 09:49:55;;;;;;;;;;;1.30;99.90;;;;;;5048875;28;19925;-82
2021/12/10 09:52:25;;;;;;;;;;;1.30;99.90;;;;;;5036722;28;19924;-83
2021/12/10 09:54:52;;;;;;;;;;;1.30;99.90;;;;;;5026905;28;19968;-81
2021/12/10 09:57:21;;;;;;;;;;;1.30;99.90;;;;;;5025791;28;19929;-81
2021/12/10 09:59:51;;;;;;;;;;;1.30;99.90;;;;;;5025332;28;20047;-86
2021/12/10 10:02:18;;;;;;;;;;;1.30;99.90;;;;;;5036938;28;20006;-85
2021/12/10 10:04:49;;;;;;;;;;;1.30;99.90;;;;;;5045978;28;19935;-82
2021/12/10 10:07:17;;;;;;;;;;;1.30;99.90;;;;;;5037763;28;19957;-82
2021/12/10 10:09:48;;;;;;;;;;;1.30;99.90;;;;;;5024973;28;19968;-85
2021/12/10 10:12:18;;;;;;;;;;;1.30;99.90;;;;;;5024418;28;19935;-81
2021/12/10 10:14:45;;;;;;;;;;;1.30;99.90;;;;;;5022268;28;19995;-81
2021/12/10 10:17:13;;;;;;;;;;;1.30;99.90;;;;;;5055981;28;19925;-81
2021/12/10 10:19:41;;;;;;;;;;;1.30;99.90;;;;;;5025668;28;19925;-83
2021/12/10 10:22:09;;;;;;;;;;;1.30;99.90;;;;;;5045476;28;19939;-83
2021/12/10 10:24:37;;;;;;;;;;;1.30;99.90;;;;;;5053291;28;20279;-85
2021/12/10 10:27:08;;;;;;;;;;;1.30;99.90;;;;;;5042243;28;20302;-81
2021/12/10 10:29:37;;;;;;;;;;;1.30;99.90;;;;;;5048626;28;19932;-83
2021/12/10 10:32:09;;;;;;;;;;;1.30;99.90;;;;;;5043313;28;19925;-81
2021/12/10 10:34:37;;;;;;;;;;;1.30;99.90;;;;;;5028477;28;19929;-81
2021/12/10 10:37:04;;;;;;;;;;;1.30;99.90;;;;;;5031406;28;19940;-81
2021/12/10 10:39:34;;;;;;;;;;;1.30;99.90;;;;;;5040812;28;19925;-81
2021/12/10 10:42:01;;;;;;;;;;;1.30;99.90;;;;;;5022952;28;19947;-84
2021/12/10 10:44:30;;;;;;;;;;;1.30;99.90;;;;;;5025480;28;20016;-84
2021/12/10 10:46:58;;;;;;;;;;;1.40;99.90;;;;;;5021008;28;20141;-82
2021/12/10 10:49:33;;;;;;;;;;;1.40;99.90;;;;;;5029630;28;19960;-81
2021/12/10 10:52:11;;;;;;;;;;;1.30;99.90;;;;;;5024924;28;19999;-81
2021/12/10 10:54:39;;;;;;;;;;;1.40;99.90;;;;;;5023792;28;20305;-81
2021/12/10 10:57:11;;;;;;;;;;;1.40;99.90;;;;;;5025234;28;19937;-81
2021/12/10 10:59:39;;;;;;;;;;;1.40;99.90;;;;;;5027086;28;19947;-81
2021/12/10 11:02:08;;;;;;;;;;;1.40;99.90;;;;;;5018685;28;19933;-82
2021/12/10 11:04:38;;;;;;;;;;;1.40;99.90;;;;;;5016438;28;19933;-83
2021/12/10 11:07:06;;;;;;;;;;;1.30;99.90;;;;;;5047414;28;20621;-81
2021/12/10 11:09:35;;;;;;;;;;;1.40;99.90;;;;;;5029047;28;20570;-81
2021/12/10 11:12:04;;;;;;;;;;;1.40;99.90;;;;;;5042136;28;19959;-81
2021/12/10 11:14:33;;;;;;;;;;;1.40;99.90;;;;;;5023084;28;20353;-85
2021/12/10 11:17:05;;;;;;;;;;;1.40;99.90;;;;;;5017382;28;19924;-82
2021/12/10 11:19:32;;;;;;;;;;;1.40;99.90;;;;;;5039529;28;20390;-83
2021/12/10 11:22:00;;;;;;;;;;;1.40;99.90;;;;;;5044361;28;19925;-81
2021/12/10 11:24:34;;;;;;;;;;;1.40;99.90;;;;;;5040604;28;19933;-81
2021/12/10 11:27:04;;;;;;;;;;;1.40;99.90;;;;;;5025573;28;19931;-82
2021/12/10 11:29:35;;;;;;;;;;;1.40;99.90;;;;;;5028208;28;19924;-81
2021/12/10 11:32:04;;;;;;;;;;;1.40;99.90;;;;;;5043635;28;20550;-81
2021/12/10 11:34:47;;;;;;;;;;;1.40;99.90;;;;;;5042542;28;20024;-84
2021/12/10 11:37:16;;;;;;;;;;;1.40;99.90;;;;;;5037119;28;19940;-82
2021/12/10 11:39:49;;;;;;;;;;;1.40;99.90;;;;;;5047350;28;19924;-81
2021/12/10 11:42:39;;;;;;;;;;;1.50;99.90;;;;;;5049258;28;19929;-81
2021/12/10 11:45:30;;;;;;;;;;;1.50;99.90;;;;;;5021888;28;19971;-81
2021/12/10 11:48:06;;;;;;;;;;;1.50;99.90;;;;;;5028549;28;19925;-81
2021/12/10 11:50:35;;;;;;;;;;;1.50;99.90;;;;;;5028895;28;19932;-82
2021/12/10 11:53:03;;;;;;;;;;;1.50;99.90;;;;;;5048110;28;19978;-81
2021/12/10 11:55:32;;;;;;;;;;;1.40;99.90;;;;;;5043255;28;19929;-81
2021/12/10 11:57:59;;;;;;;;;;;1.50;99.90;;;;;;5028826;28;19925;-80
2021/12/10 12:00:27;;;;;;;;;;;1.50;99.90;;;;;;5042906;28;19998;-81
2021/12/10 12:02:55;;;;;;;;;;;1.50;99.90;;;;;;5022772;28;19924;-81
2021/12/10 12:05:23;;;;;;;;;;;1.50;99.90;;;;;;5035058;28;19947;-82
2021/12/10 12:07:52;;;;;;;;;;;1.50;99.90;;;;;;5042270;28;19939;-82
2021/12/10 12:10:23;;;;;;;;;;;1.50;99.90;;;;;;5037300;28;19991;-81
2021/12/10 12:12:52;;;;;;;;;;;1.50;99.90;;;;;;5033233;28;19972;-81
2021/12/10 12:15:21;;;;;;;;;;;1.50;99.90;;;;;;5035986;28;19932;-81
2021/12/10 12:17:49;;;;;;;;;;;1.50;99.90;;;;;;5025958;28;20000;-80
2021/12/10 12:20:23;;;;;;;;;;;1.50;99.90;;;;;;5029285;28;20055;-81
2021/12/10 12:25:42;;;;;;;;;;;1.50;99.90;;;;;;5041513;28;19929;-81
2021/12/10 12:28:10;;;;;;;;;;;1.50;99.90;;;;;;5031828;28;19995;-81
2021/12/10 12:30:50;;;;;;;;;;;1.50;99.90;;;;;;5028527;28;19925;-82
2021/12/10 12:33:17;;;;;;;;;;;1.50;99.90;;;;;;5022091;28;19995;-81
2021/12/10 12:35:44;;;;;;;;;;;1.50;99.90;;;;;;5032767;28;19971;-82
2021/12/10 12:38:15;;;;;;;;;;;1.50;99.90;;;;;;5044692;28;20454;-81
2021/12/10 12:40:44;;;;;;;;;;;1.50;99.90;;;;;;5041626;28;20027;-81
2021/12/10 12:43:11;;;;;;;;;;;1.50;99.90;;;;;;5047937;28;19947;-82
2021/12/10 12:45:39;;;;;;;;;;;1.50;99.90;;;;;;5040441;28;19928;-82
2021/12/10 12:48:09;;;;;;;;;;;1.50;99.90;;;;;;5046005;28;19925;-82
2021/12/10 12:50:36;;;;;;;;;;;1.50;99.90;;;;;;5029213;28;19925;-81
2021/12/10 12:53:06;;;;;;;;;;;1.50;99.90;;;;;;5029088;28;19933;-80
2021/12/10 12:55:38;;;;;;;;;;;1.50;99.90;;;;;;5025249;28;20413;-81
2021/12/10 12:58:08;;;;;;;;;;;1.50;99.90;;;;;;5028218;28;19984;-81
2021/12/10 13:00:37;;;;;;;;;;;1.50;99.90;;;;;;5042894;28;19925;-82
2021/12/10 13:03:05;;;;;;;;;;;1.50;99.90;;;;;;5047236;28;19932;-83
2021/12/10 13:05:38;;;;;;;;;;;1.50;99.90;;;;;;5043074;28;19932;-86
2021/12/10 13:11:08;;;;;;;;;;;1.50;99.90;;;;;;5034977;28;19990;-74
2021/12/10 13:13:39;;;;;;;;;;;1.50;99.90;;;;;;5041997;28;20386;-74
2021/12/10 13:16:09;;;;;;;;;;;1.50;99.90;;;;;;5048128;28;19982;-75
2021/12/10 13:18:37;;;;;;;;;;;1.50;99.90;;;;;;5061632;28;19932;-75
2021/12/10 13:21:05;;;;;;;;;;;1.50;99.90;;;;;;5061328;28;19932;-75
2021/12/10 13:23:32;;;;;;;;;;;1.50;99.90;;;;;;5063726;28;19928;-75
2021/12/10 13:26:01;;;;;;;;;;;1.50;99.90;;;;;;5041996;28;19932;-75
2021/12/10 13:28:29;;;;;;;;;;;1.50;99.90;;;;;;5060601;28;20880;-74
2021/12/10 13:30:58;;;;;;;;;;;1.50;99.90;;;;;;5066853;28;19925;-75
2021/12/10 13:33:26;;;;;;;;;;;1.50;99.90;;;;;;5061528;28;20611;-76
2021/12/10 13:35:55;;;;;;;;;;;1.50;99.90;;;;;;5059334;28;19928;-76
2021/12/10 13:38:22;;;;;;;;;;;1.50;99.90;;;;;;5047891;28;19935;-76
2021/12/10 13:40:50;;;;;;;;;;;1.60;99.90;;;;;;5046921;28;19932;-76
2021/12/10 13:43:17;;;;;;;;;;;1.50;99.90;;;;;;5056902;28;20480;-75
2021/12/10 13:45:48;;;;;;;;;;;1.50;99.90;;;;;;5058367;28;20393;-75
2021/12/10 13:48:16;;;;;;;;;;;1.60;99.90;;;;;;5042844;28;19933;-76
2021/12/10 13:50:44;;;;;;;;;;;1.50;99.90;;;;;;5064591;28;20497;-76
2021/12/10 13:53:13;;;;;;;;;;;1.50;99.90;;;;;;5056063;28;19932;-76
2021/12/10 13:55:42;;;;;;;;;;;1.50;99.90;;;;;;5025719;28;19933;-76
2021/12/10 13:58:11;;;;;;;;;;;1.50;99.90;;;;;;5037281;28;19929;-76
2021/12/10 14:00:42;;;;;;;;;;;1.50;99.90;;;;;;5062927;28;19930;-75
2021/12/10 14:03:11;;;;;;;;;;;1.50;99.90;;;;;;5063654;28;20310;-76
2021/12/10 14:05:41;;;;;;;;;;;1.50;99.90;;;;;;5043418;28;19924;-75
2021/12/10 14:08:13;;;;;;;;;;;1.50;99.90;;;;;;5044251;28;19956;-75
2021/12/10 14:10:41;;;;;;;;;;;1.50;99.90;;;;;;5057070;28;20572;-76
2021/12/10 14:13:10;;;;;;;;;;;1.50;99.90;;;;;;5061896;28;19977;-76
2021/12/10 14:15:43;;;;;;;;;;;1.50;99.90;;;;;;5058701;28;19939;-75
2021/12/10 14:18:15;;;;;;;;;;;1.50;99.90;;;;;;5045192;28;20023;-75
2021/12/10 14:20:44;;;;;;;;;;;1.50;99.90;;;;;;5041283;28;19986;-76
2021/12/10 14:23:14;;;;;;;;;;;1.50;99.90;;;;;;5056854;28;20390;-76
2021/12/10 14:25:46;;;;;;;;;;;1.50;99.90;;;;;;5050818;28;20059;-75
2021/12/10 14:28:14;;;;;;;;;;;1.50;99.90;;;;;;5039768;28;20458;-77
2021/12/10 14:30:43;;;;;;;;;;;1.50;99.90;;;;;;5064119;28;19938;-76
2021/12/10 14:33:17;;;;;;;;;;;1.50;99.90;;;;;;5041362;28;19995;-76
2021/12/10 14:35:50;;;;;;;;;;;1.50;99.90;;;;;;5039633;28;19925;-76
2021/12/10 14:38:18;;;;;;;;;;;1.50;99.90;;;;;;5062823;28;19951;-76
2021/12/10 14:40:49;;;;;;;;;;;1.50;99.90;;;;;;5064677;28;19933;-75
2021/12/10 14:43:18;;;;;;;;;;;1.50;99.90;;;;;;5042215;28;19928;-75
2021/12/10 14:46:02;;;;;;;;;;;1.50;99.90;;;;;;5067211;28;20389;-76
2021/12/10 14:48:31;;;;;;;;;;;1.50;99.90;;;;;;5040536;28;19929;-75
2021/12/10 14:51:03;;;;;;;;;;;1.50;99.90;;;;;;5065900;28;19987;-75
2021/12/10 14:53:32;;;;;;;;;;;1.50;99.90;;;;;;5032632;28;19925;-75
2021/12/10 14:56:13;;;;;;;;;;;1.50;99.90;;;;;;5042294;28;19929;-75
2021/12/10 14:58:40;;;;;;;;;;;1.50;99.90;;;;;;5057493;28;19933;-75
2021/12/10 15:01:09;;;;;;;;;;;1.50;99.90;;;;;;5059496;28;20015;-75